Terminal Aerodrome Forecast
Issued by NWS

Home | Current Version | Previous Version | Graphics & Text | Print | Product List | Glossary On
Versions: 1 2 3 4 5 6 7 8 9 10 11 12 13 14 15 16
111
FTUS43 KTOP 211613 AAB
TAFMHK
TAF AMD
KMHK 211613Z 2116/2212 05007KT 6SM -RA FEW030 OVC040
      TEMPO 2116/2118 4SM -RA BR
     FM212000 06007KT P6SM VCSH FEW030 OVC040=

USA.gov is the U.S. government's official web portal to all federal, state and local government web resources and services.